Michel Dsr — FLTE — position and weather

sailwx.info

Track history (hours):
 
Tides and Currents Weather Stations Pressure Air Temp Water Temp Dewpoint Dewpoint Depression Visibility Wind Speed Wind Dir Waves Ship Positions

Michel Dsr

Last reported at 2014-Oct-30 15:14 UTC. Time now 2014-Oct-30 18:13 UTC.
Position N 47°18' W 002°07'.

Length 80 m; draft 4.7 m.

Type: Dredging. MMSI: 228344700.

Date/timePositionNaut miles runAvg speedWind from/ knotsBaromVisibWave heightAir tempDewpointWater temp
2014-Oct-30 15:14N 47°18' W 002°07'0 0.0
2014-Oct-30 13:32N 47°18' W 002°07'0 0.0
2014-Oct-30 11:25N 47°18' W 002°07'0 0.0
2014-Oct-30 10:33N 47°18' W 002°07'0 0.0
2014-Oct-30 09:33N 47°18' W 002°07'0 0.0
2014-Oct-30 08:33N 47°18' W 002°07'0 0.0
2014-Oct-30 07:33N 47°18' W 002°07'0 0.0
2014-Oct-30 06:29N 47°18' W 002°07'6 5.2
2014-Oct-30 05:21N 47°15' W 002°14'1010.3
2014-Oct-30 04:22N 47°06' W 002°23'6 7.6
2014-Oct-30 03:32N 47°01' W 002°28'8 8.1
2014-Oct-30 02:33N 46°53' W 002°26'9 9.0
2014-Oct-30 01:33N 46°46' W 002°17'10 9.6
2014-Oct-30 00:32N 46°39' W 002°08'1010.0
2014-Oct-29 23:33N 46°31' W 001°59'10 9.9
2014-Oct-29 22:33N 46°23' W 001°50'10 9.8
2014-Oct-29 21:33N 46°16' W 001°41'10 9.6
2014-Oct-29 20:33N 46°08' W 001°32'10 9.5
2014-Oct-29 19:33N 46°07' W 001°19'5 4.6
2014-Oct-29 18:33N 46°09' W 001°13'0 0.0
2014-Oct-29 17:15N 46°09' W 001°13'1 0.6
2014-Oct-29 16:12N 46°10' W 001°14'0 0.0
2014-Oct-29 15:33N 46°10' W 001°14'0 0.0
2014-Oct-29 14:11N 46°10' W 001°14'0 0.0
2014-Oct-29 12:33N 46°10' W 001°14'0 0.0
2014-Oct-29 11:13N 46°10' W 001°14'0 0.0
2014-Oct-29 10:28N 46°10' W 001°14'0 0.0
2014-Oct-29 09:33N 46°10' W 001°14'0 0.0
2014-Oct-29 08:33N 46°10' W 001°14'0 0.0
2014-Oct-29 07:22N 46°10' W 001°14'0 0.0
2014-Oct-29 06:34N 46°10' W 001°14'0 0.0
2014-Oct-29 05:33N 46°10' W 001°14'0 0.0
2014-Oct-29 04:32N 46°10' W 001°14'0 0.0
2014-Oct-29 03:33N 46°10' W 001°14'0 0.0
2014-Oct-29 02:32N 46°10' W 001°14'0 0.0
2014-Oct-29 01:26N 46°10' W 001°14'0 0.0
2014-Oct-29 00:33N 46°10' W 001°14'0 0.0
2014-Oct-28 23:33N 46°10' W 001°14'0 0.0
2014-Oct-28 21:33N 46°10' W 001°14'0 0.0
2014-Oct-28 20:32N 46°10' W 001°14'0 0.0
2014-Oct-28 19:14N 46°10' W 001°14'0 0.0
2014-Oct-28 18:31N 46°10' W 001°14'0 0.0
2014-Oct-28 17:15N 46°10' W 001°14'0 0.0
2014-Oct-28 16:30N 46°10' W 001°14'0 0.0
2014-Oct-28 09:29N 46°10' W 001°14'0 0.0
2014-Oct-28 08:14N 46°10' W 001°14'0 0.0
2014-Oct-28 07:27N 46°10' W 001°14'0 0.0
2014-Oct-28 01:32N 46°10' W 001°14'0 0.0
2014-Oct-28 00:33N 46°10' W 001°14'0 0.0
2014-Oct-27 23:33N 46°10' W 001°14'0 0.0
2014-Oct-27 22:33N 46°10' W 001°14'0 0.0
2014-Oct-27 21:31N 46°10' W 001°14'0 0.0
2014-Oct-27 19:32N 46°10' W 001°14'0 0.0
2014-Oct-27 18:29N 46°10' W 001°14'0 0.0
2014-Oct-27 17:33N 46°10' W 001°14'1 0.6
2014-Oct-27 16:33N 46°09' W 001°13'6 2.8
2014-Oct-27 14:15N 46°06' W 001°21'7 8.2
2014-Oct-27 13:27N 46°06' W 001°31'3 2.2
2014-Oct-27 12:10N 46°05' W 001°35'0 0.1
2014-Oct-27 11:27N 46°05' W 001°35'0 0.1
2014-Oct-27 10:33N 46°05' W 001°35'7 7.3
2014-Oct-27 09:33N 46°06' W 001°24'8 8.2
2014-Oct-27 08:33N 46°09' W 001°13'0 0.0
2014-Oct-27 07:32N 46°09' W 001°13'0 0.0
2014-Oct-27 06:33N 46°09' W 001°13'0 0.0
2014-Oct-27 05:33N 46°09' W 001°13'2 2.3
2014-Oct-27 04:33N 46°07' W 001°15'9 9.3
2014-Oct-27 03:33N 46°07' W 001°29'12 9.9
2014-Oct-27 02:19N 46°14' W 001°43'810.1
2014-Oct-27 01:33N 46°20' W 001°50'1010.1
2014-Oct-27 00:33N 46°28' W 001°58'1010.4
2014-Oct-26 23:33N 46°37' W 002°07'1110.8
2014-Oct-26 22:33N 46°46' W 002°16'1110.4
2014-Oct-26 21:33N 46°53' W 002°27'13 4.1
2014-Oct-26 18:28N 47°05' W 002°21'18 5.8
2014-Oct-26 15:24N 47°13' W 002°45'2412.8
2014-Oct-26 13:32N 47°29' W 003°12'1212.8
2014-Oct-26 12:33N 47°39' W 003°23'6 5.7
2014-Oct-26 11:33N 47°44' W 003°21'0 0.0
2014-Oct-26 10:33N 47°44' W 003°21'0 0.0
2014-Oct-26 09:33N 47°44' W 003°21'0 0.0
2014-Oct-26 08:33N 47°44' W 003°21'0 0.0
2014-Oct-26 07:33N 47°44' W 003°21'0 0.0
2014-Oct-26 06:33N 47°44' W 003°21'0 0.0
2014-Oct-26 05:33N 47°44' W 003°21'0 0.0
2014-Oct-26 04:33N 47°44' W 003°21'0 0.0
2014-Oct-26 03:33N 47°44' W 003°21'0 0.0
2014-Oct-26 02:33N 47°44' W 003°21'0 0.0
2014-Oct-26 01:33N 47°44' W 003°21'0 0.0
2014-Oct-26 00:33N 47°44' W 003°21'0 0.0
2014-Oct-25 23:33N 47°44' W 003°21'0 0.0
2014-Oct-25 22:33N 47°44' W 003°21'0 0.0
2014-Oct-25 21:33N 47°44' W 003°21'0 0.0
2014-Oct-25 20:33N 47°44' W 003°21'0 0.0
2014-Oct-25 19:33N 47°44' W 003°21'0 0.0
2014-Oct-25 18:33N 47°44' W 003°21'1 1.4
2014-Oct-25 17:33N 47°45' W 003°19'0 0.0
2014-Oct-25 16:33N 47°45' W 003°19'0 0.0
2014-Oct-25 15:33N 47°45' W 003°19'1 1.4
2014-Oct-25 14:33N 47°44' W 003°21'0 0.0
2014-Oct-25 13:33N 47°44' W 003°21'0 0.0
2014-Oct-25 12:34N 47°44' W 003°21'0 0.0
2014-Oct-25 11:34N 47°44' W 003°21'0 0.0
2014-Oct-25 10:34N 47°44' W 003°21'0 0.0
2014-Oct-25 09:34N 47°44' W 003°21'0 0.0
2014-Oct-25 08:34N 47°44' W 003°21'5 5.2
2014-Oct-25 07:33N 47°39' W 003°23'1212.1
2014-Oct-25 06:33N 47°30' W 003°12'1211.9
2014-Oct-25 05:33N 47°20' W 003°02'8 0.9
2014-Oct-24 20:08N 47°26' W 003°11'711.4
2014-Oct-24 19:34N 47°32' W 003°15'1111.1
2014-Oct-24 18:34N 47°41' W 003°23'4 4.4
2014-Oct-24 17:33N 47°45' W 003°19'0 0.0
2014-Oct-24 16:33N 47°45' W 003°19'0 0.0
2014-Oct-24 15:33N 47°45' W 003°19'0 0.1
2014-Oct-24 14:33N 47°45' W 003°19'6 6.5
2014-Oct-24 13:33N 47°39' W 003°22'8 7.9
2014-Oct-24 12:33N 47°32' W 003°16'9 8.9
2014-Oct-24 11:33N 47°25' W 003°08'13 9.6
2014-Oct-24 10:12N 47°16' W 002°54'51 1.4
2014-Oct-22 20:32N 46°37' W 002°06'1212.2
2014-Oct-22 19:33N 46°27' W 001°56'1212.2
2014-Oct-22 18:33N 46°17' W 001°45'1212.0
2014-Oct-22 17:31N 46°09' W 001°32'6 0.3
2014-Oct-21 22:04N 46°12' W 001°39'4 8.5
2014-Oct-21 21:33N 46°15' W 001°43'8 8.3
2014-Oct-21 20:33N 46°21' W 001°51'8 8.2
2014-Oct-21 19:33N 46°28' W 001°57'8 7.9
2014-Oct-21 18:33N 46°35' W 002°04'8 7.9
2014-Oct-21 17:33N 46°41' W 002°11'9 8.8
2014-Oct-21 16:33N 46°48' W 002°19'  
Track history (hours):
 
Tides and Currents Weather Stations Pressure Air Temp Water Temp Dewpoint Dewpoint Depression Visibility Wind Speed Wind Dir Waves Ship Positions

Michel Dsr

Last reported at 2014-Oct-30 15:14 UTC. Time now 2014-Oct-30 18:13 UTC.
Position N 47°18' W 002°07'.

Length 80 m; draft 4.7 m.

Type: Dredging. MMSI: 228344700.

Date/timePositionNaut miles runAvg speedWind from/ knotsBaromVisibWave heightAir tempDewpointWater temp
2014-Oct-30 15:14N 47°18' W 002°07'0 0.0
2014-Oct-30 13:32N 47°18' W 002°07'0 0.0
2014-Oct-30 11:25N 47°18' W 002°07'0 0.0
2014-Oct-30 10:33N 47°18' W 002°07'0 0.0
2014-Oct-30 09:33N 47°18' W 002°07'0 0.0
2014-Oct-30 08:33N 47°18' W 002°07'0 0.0
2014-Oct-30 07:33N 47°18' W 002°07'0 0.0
2014-Oct-30 06:29N 47°18' W 002°07'6 5.2
2014-Oct-30 05:21N 47°15' W 002°14'1010.3
2014-Oct-30 04:22N 47°06' W 002°23'6 7.6
2014-Oct-30 03:32N 47°01' W 002°28'8 8.1
2014-Oct-30 02:33N 46°53' W 002°26'9 9.0
2014-Oct-30 01:33N 46°46' W 002°17'10 9.6
2014-Oct-30 00:32N 46°39' W 002°08'1010.0
2014-Oct-29 23:33N 46°31' W 001°59'10 9.9
2014-Oct-29 22:33N 46°23' W 001°50'10 9.8
2014-Oct-29 21:33N 46°16' W 001°41'10 9.6
2014-Oct-29 20:33N 46°08' W 001°32'10 9.5
2014-Oct-29 19:33N 46°07' W 001°19'5 4.6
2014-Oct-29 18:33N 46°09' W 001°13'0 0.0
2014-Oct-29 17:15N 46°09' W 001°13'1 0.6
2014-Oct-29 16:12N 46°10' W 001°14'0 0.0
2014-Oct-29 15:33N 46°10' W 001°14'0 0.0
2014-Oct-29 14:11N 46°10' W 001°14'0 0.0
2014-Oct-29 12:33N 46°10' W 001°14'0 0.0
2014-Oct-29 11:13N 46°10' W 001°14'0 0.0
2014-Oct-29 10:28N 46°10' W 001°14'0 0.0
2014-Oct-29 09:33N 46°10' W 001°14'0 0.0
2014-Oct-29 08:33N 46°10' W 001°14'0 0.0
2014-Oct-29 07:22N 46°10' W 001°14'0 0.0
2014-Oct-29 06:34N 46°10' W 001°14'0 0.0
2014-Oct-29 05:33N 46°10' W 001°14'0 0.0
2014-Oct-29 04:32N 46°10' W 001°14'0 0.0
2014-Oct-29 03:33N 46°10' W 001°14'0 0.0
2014-Oct-29 02:32N 46°10' W 001°14'0 0.0
2014-Oct-29 01:26N 46°10' W 001°14'0 0.0
2014-Oct-29 00:33N 46°10' W 001°14'0 0.0
2014-Oct-28 23:33N 46°10' W 001°14'0 0.0
2014-Oct-28 21:33N 46°10' W 001°14'0 0.0
2014-Oct-28 20:32N 46°10' W 001°14'0 0.0
2014-Oct-28 19:14N 46°10' W 001°14'0 0.0
2014-Oct-28 18:31N 46°10' W 001°14'0 0.0
2014-Oct-28 17:15N 46°10' W 001°14'0 0.0
2014-Oct-28 16:30N 46°10' W 001°14'0 0.0
2014-Oct-28 09:29N 46°10' W 001°14'0 0.0
2014-Oct-28 08:14N 46°10' W 001°14'0 0.0
2014-Oct-28 07:27N 46°10' W 001°14'0 0.0
2014-Oct-28 01:32N 46°10' W 001°14'0 0.0
2014-Oct-28 00:33N 46°10' W 001°14'0 0.0
2014-Oct-27 23:33N 46°10' W 001°14'0 0.0
2014-Oct-27 22:33N 46°10' W 001°14'0 0.0
2014-Oct-27 21:31N 46°10' W 001°14'0 0.0
2014-Oct-27 19:32N 46°10' W 001°14'0 0.0
2014-Oct-27 18:29N 46°10' W 001°14'0 0.0
2014-Oct-27 17:33N 46°10' W 001°14'1 0.6
2014-Oct-27 16:33N 46°09' W 001°13'6 2.8
2014-Oct-27 14:15N 46°06' W 001°21'7 8.2
2014-Oct-27 13:27N 46°06' W 001°31'3 2.2
2014-Oct-27 12:10N 46°05' W 001°35'0 0.1
2014-Oct-27 11:27N 46°05' W 001°35'0 0.1
2014-Oct-27 10:33N 46°05' W 001°35'7 7.3
2014-Oct-27 09:33N 46°06' W 001°24'8 8.2
2014-Oct-27 08:33N 46°09' W 001°13'0 0.0
2014-Oct-27 07:32N 46°09' W 001°13'0 0.0
2014-Oct-27 06:33N 46°09' W 001°13'0 0.0
2014-Oct-27 05:33N 46°09' W 001°13'2 2.3
2014-Oct-27 04:33N 46°07' W 001°15'9 9.3
2014-Oct-27 03:33N 46°07' W 001°29'12 9.9
2014-Oct-27 02:19N 46°14' W 001°43'810.1
2014-Oct-27 01:33N 46°20' W 001°50'1010.1
2014-Oct-27 00:33N 46°28' W 001°58'1010.4
2014-Oct-26 23:33N 46°37' W 002°07'1110.8
2014-Oct-26 22:33N 46°46' W 002°16'1110.4
2014-Oct-26 21:33N 46°53' W 002°27'13 4.1
2014-Oct-26 18:28N 47°05' W 002°21'18 5.8
2014-Oct-26 15:24N 47°13' W 002°45'2412.8
2014-Oct-26 13:32N 47°29' W 003°12'1212.8
2014-Oct-26 12:33N 47°39' W 003°23'6 5.7
2014-Oct-26 11:33N 47°44' W 003°21'0 0.0
2014-Oct-26 10:33N 47°44' W 003°21'0 0.0
2014-Oct-26 09:33N 47°44' W 003°21'0 0.0
2014-Oct-26 08:33N 47°44' W 003°21'0 0.0
2014-Oct-26 07:33N 47°44' W 003°21'0 0.0
2014-Oct-26 06:33N 47°44' W 003°21'0 0.0
2014-Oct-26 05:33N 47°44' W 003°21'0 0.0
2014-Oct-26 04:33N 47°44' W 003°21'0 0.0
2014-Oct-26 03:33N 47°44' W 003°21'0 0.0
2014-Oct-26 02:33N 47°44' W 003°21'0 0.0
2014-Oct-26 01:33N 47°44' W 003°21'0 0.0
2014-Oct-26 00:33N 47°44' W 003°21'0 0.0
2014-Oct-25 23:33N 47°44' W 003°21'0 0.0
2014-Oct-25 22:33N 47°44' W 003°21'0 0.0
2014-Oct-25 21:33N 47°44' W 003°21'0 0.0
2014-Oct-25 20:33N 47°44' W 003°21'0 0.0
2014-Oct-25 19:33N 47°44' W 003°21'0 0.0
2014-Oct-25 18:33N 47°44' W 003°21'1 1.4
2014-Oct-25 17:33N 47°45' W 003°19'0 0.0
2014-Oct-25 16:33N 47°45' W 003°19'0 0.0
2014-Oct-25 15:33N 47°45' W 003°19'1 1.4
2014-Oct-25 14:33N 47°44' W 003°21'0 0.0
2014-Oct-25 13:33N 47°44' W 003°21'0 0.0
2014-Oct-25 12:34N 47°44' W 003°21'0 0.0
2014-Oct-25 11:34N 47°44' W 003°21'0 0.0
2014-Oct-25 10:34N 47°44' W 003°21'0 0.0
2014-Oct-25 09:34N 47°44' W 003°21'0 0.0
2014-Oct-25 08:34N 47°44' W 003°21'5 5.2
2014-Oct-25 07:33N 47°39' W 003°23'1212.1
2014-Oct-25 06:33N 47°30' W 003°12'1211.9
2014-Oct-25 05:33N 47°20' W 003°02'8 0.9
2014-Oct-24 20:08N 47°26' W 003°11'711.4
2014-Oct-24 19:34N 47°32' W 003°15'1111.1
2014-Oct-24 18:34N 47°41' W 003°23'4 4.4
2014-Oct-24 17:33N 47°45' W 003°19'0 0.0
2014-Oct-24 16:33N 47°45' W 003°19'0 0.0
2014-Oct-24 15:33N 47°45' W 003°19'0 0.1
2014-Oct-24 14:33N 47°45' W 003°19'6 6.5
2014-Oct-24 13:33N 47°39' W 003°22'8 7.9
2014-Oct-24 12:33N 47°32' W 003°16'9 8.9
2014-Oct-24 11:33N 47°25' W 003°08'13 9.6
2014-Oct-24 10:12N 47°16' W 002°54'51 1.4
2014-Oct-22 20:32N 46°37' W 002°06'1212.2
2014-Oct-22 19:33N 46°27' W 001°56'1212.2
2014-Oct-22 18:33N 46°17' W 001°45'1212.0
2014-Oct-22 17:31N 46°09' W 001°32'6 0.3
2014-Oct-21 22:04N 46°12' W 001°39'4 8.5
2014-Oct-21 21:33N 46°15' W 001°43'8 8.3
2014-Oct-21 20:33N 46°21' W 001°51'8 8.2
2014-Oct-21 19:33N 46°28' W 001°57'8 7.9
2014-Oct-21 18:33N 46°35' W 002°04'8 7.9
2014-Oct-21 17:33N 46°41' W 002°11'9 8.8
2014-Oct-21 16:33N 46°48' W 002°19'  

Dump ship's entire track history